createdAt,value
2023-05-03T00:02:58.009Z,92.99
2023-05-03T00:06:09.452Z,93.38
2023-05-03T00:09:12.496Z,93.52
2023-05-03T00:12:14.043Z,94.04
2023-05-03T00:15:15.821Z,93.66
2023-05-03T00:18:17.868Z,93.99
2023-05-03T00:21:19.405Z,94.54
2023-05-03T00:24:22.759Z,94.34
2023-05-03T00:27:24.636Z,94.79
2023-05-03T00:30:26.654Z,95.00
2023-05-03T00:33:29.552Z,95.31
2023-05-03T00:36:31.262Z,95.63
2023-05-03T00:39:34.336Z,95.42
2023-05-03T00:42:36.739Z,94.92
2023-05-03T00:45:38.576Z,95.02
2023-05-03T00:48:40.142Z,95.30
2023-05-03T00:51:42.402Z,95.13
2023-05-03T00:54:46.132Z,95.20
2023-05-03T00:57:47.799Z,94.89
2023-05-03T01:00:50.529Z,95.11
2023-05-03T01:03:52.457Z,95.21
2023-05-03T01:06:59.323Z,95.33
2023-05-03T01:10:09.288Z,95.69
2023-05-03T01:13:17.467Z,95.88
2023-05-03T01:16:22.334Z,95.97
2023-05-03T01:19:28.620Z,96.16
2023-05-03T01:22:34.102Z,96.20
2023-05-03T01:25:37.384Z,95.88
2023-05-03T01:28:39.133Z,95.87
2023-05-03T01:31:46.948Z,95.63
2023-05-03T01:34:51.636Z,95.67
2023-05-03T01:37:55.961Z,95.30
2023-05-03T01:41:01.800Z,95.77
2023-05-03T01:44:04.349Z,95.85
2023-05-03T01:47:06.367Z,95.93
2023-05-03T01:50:09.008Z,96.19
2023-05-03T01:53:10.572Z,96.15
2023-05-03T01:56:13.488Z,96.16
2023-05-03T01:59:15.123Z,95.63
2023-05-03T02:02:17.128Z,95.49
2023-05-03T02:05:18.807Z,95.66
2023-05-03T02:08:20.608Z,95.42
2023-05-03T02:11:24.001Z,95.36
2023-05-03T02:14:25.745Z,95.19
2023-05-03T02:17:27.656Z,95.39
2023-05-03T02:20:32.515Z,95.58
2023-05-03T02:23:34.230Z,95.92
2023-05-03T02:26:37.221Z,95.76
2023-05-03T02:29:38.973Z,96.00
2023-05-03T02:32:40.945Z,96.39
2023-05-03T02:35:43.544Z,96.13
2023-05-03T02:38:46.366Z,95.90
2023-05-03T02:41:49.745Z,95.85
2023-05-03T02:44:51.937Z,95.93
2023-05-03T02:47:53.595Z,95.88
2023-05-03T02:50:57.316Z,96.44
2023-05-03T02:53:59.748Z,96.56
2023-05-03T02:57:03.025Z,96.72
2023-05-03T03:00:06.519Z,97.37
2023-05-03T03:03:08.633Z,97.28
2023-05-03T03:06:10.712Z,97.67
2023-05-03T03:09:14.400Z,97.85
2023-05-03T03:12:17.534Z,97.99
2023-05-03T03:15:19.469Z,98.15
2023-05-03T03:18:21.130Z,98.08
2023-05-03T03:21:22.910Z,97.97
2023-05-03T03:24:24.689Z,98.07
2023-05-03T03:27:29.740Z,98.02
2023-05-03T03:30:31.981Z,98.25
2023-05-03T03:33:43.312Z,98.66
2023-05-03T03:36:50.838Z,98.72
2023-05-03T03:39:53.981Z,98.19
2023-05-03T03:42:57.941Z,99.06
2023-05-03T03:46:00.448Z,98.82
2023-05-03T03:49:02.233Z,99.00
2023-05-03T03:52:06.440Z,99.00
2023-05-03T03:55:10.548Z,98.73
2023-05-03T03:58:14.208Z,99.46
2023-05-03T04:01:15.955Z,99.30
2023-05-03T04:04:18.510Z,99.26
2023-05-03T04:07:20.438Z,99.36
2023-05-03T04:10:21.992Z,99.49
2023-05-03T04:13:25.011Z,99.69
2023-05-03T04:16:29.776Z,99.82
2023-05-03T04:19:33.061Z,99.51
2023-05-03T04:22:35.026Z,99.84
2023-05-03T04:25:37.421Z,100.00
2023-05-03T04:28:47.171Z,100.00
2023-05-03T04:31:49.182Z,99.71
2023-05-03T04:34:53.959Z,99.66
2023-05-03T04:37:57.629Z,99.83
2023-05-03T04:41:01.711Z,99.70
2023-05-03T04:44:05.610Z,100.00
2023-05-03T04:47:07.380Z,100.00
2023-05-03T04:50:11.238Z,100.00
2023-05-03T04:53:16.195Z,99.90
2023-05-03T04:56:26.309Z,100.00
2023-05-03T04:59:35.690Z,100.00
2023-05-03T05:02:38.079Z,99.85
2023-05-03T05:05:40.762Z,100.00
2023-05-03T05:08:44.819Z,100.00
2023-05-03T05:11:49.119Z,100.00
2023-05-03T05:14:52.420Z,100.00
2023-05-03T05:17:54.350Z,100.00
2023-05-03T05:20:56.198Z,100.00
2023-05-03T05:23:58.658Z,100.00
2023-05-03T05:27:00.361Z,100.00
2023-05-03T05:30:04.751Z,100.00
2023-05-03T05:33:08.180Z,100.00
2023-05-03T05:36:09.909Z,100.00
2023-05-03T05:39:12.131Z,99.09
2023-05-03T05:42:14.133Z,98.42
2023-05-03T05:45:17.154Z,97.96
2023-05-03T05:48:19.408Z,97.51
2023-05-03T05:51:22.164Z,97.06
2023-05-03T05:54:24.043Z,97.42
2023-05-03T05:57:26.221Z,97.53
2023-05-03T06:00:30.606Z,98.13
2023-05-03T06:03:32.830Z,97.74
2023-05-03T06:06:37.027Z,97.79
2023-05-03T06:09:38.717Z,97.87
2023-05-03T06:12:40.345Z,97.39
2023-05-03T06:15:49.916Z,96.73
2023-05-03T06:18:51.613Z,96.62
2023-05-03T06:21:53.525Z,96.75
2023-05-03T06:24:56.313Z,96.42
2023-05-03T06:27:57.988Z,95.55
2023-05-03T06:31:05.942Z,94.05
2023-05-03T06:34:10.260Z,93.72
2023-05-03T06:37:15.486Z,93.85
2023-05-03T06:40:17.427Z,93.13
2023-05-03T06:43:20.995Z,92.62
2023-05-03T06:46:30.260Z,92.63
2023-05-03T06:49:32.818Z,92.70
2023-05-03T06:52:34.727Z,92.27
2023-05-03T06:55:36.593Z,90.70
2023-05-03T06:58:38.530Z,90.43
2023-05-03T07:01:41.743Z,89.04
2023-05-03T07:04:43.616Z,89.68
2023-05-03T07:07:45.127Z,88.15
2023-05-03T07:10:46.802Z,88.60
2023-05-03T07:13:48.347Z,87.75
2023-05-03T07:16:51.398Z,87.90
2023-05-03T07:19:53.369Z,86.04
2023-05-03T07:22:54.896Z,86.17
2023-05-03T07:25:56.536Z,86.12
2023-05-03T07:28:58.406Z,85.71
2023-05-03T07:32:01.465Z,86.27
2023-05-03T07:35:03.997Z,85.88
2023-05-03T07:38:05.771Z,85.02
2023-05-03T07:41:07.499Z,84.42
2023-05-03T07:44:09.361Z,84.21
2023-05-03T07:47:12.554Z,84.69
2023-05-03T07:50:14.183Z,84.44
2023-05-03T07:53:15.835Z,83.67
2023-05-03T07:56:17.610Z,84.39
2023-05-03T07:59:19.500Z,83.97
2023-05-03T08:02:22.823Z,83.96
2023-05-03T08:05:24.868Z,84.40
2023-05-03T08:08:26.574Z,83.83
2023-05-03T08:11:29.145Z,83.54
2023-05-03T08:14:31.011Z,82.12
2023-05-03T08:17:39.727Z,81.36
2023-05-03T08:20:42.430Z,81.09
2023-05-03T08:23:45.187Z,82.55
2023-05-03T08:26:48.318Z,82.82
2023-05-03T08:29:54.314Z,80.32
2023-05-03T08:32:57.591Z,77.53
2023-05-03T08:35:59.473Z,78.29
2023-05-03T08:39:01.232Z,77.45
2023-05-03T08:42:07.002Z,77.32
2023-05-03T08:45:10.709Z,76.22
2023-05-03T08:48:14.433Z,75.62
2023-05-03T08:51:16.534Z,77.53
2023-05-03T08:54:20.691Z,77.65
2023-05-03T08:57:23.778Z,77.45
2023-05-03T09:00:29.476Z,76.03
2023-05-03T09:03:32.774Z,75.03
2023-05-03T09:06:35.451Z,76.50
2023-05-03T09:09:37.278Z,74.69
2023-05-03T09:12:41.555Z,74.66
2023-05-03T09:15:45.312Z,74.37
2023-05-03T09:18:57.813Z,74.14
2023-05-03T09:22:06.351Z,72.55
2023-05-03T09:25:08.758Z,73.79
2023-05-03T09:28:10.341Z,73.76
2023-05-03T09:31:13.394Z,74.18
2023-05-03T09:34:23.693Z,73.31
2023-05-03T09:37:35.760Z,72.71
2023-05-03T09:40:46.023Z,73.02
2023-05-03T09:43:52.980Z,73.36
2023-05-03T09:47:04.292Z,73.54
2023-05-03T09:50:08.236Z,70.42
2023-05-03T09:53:09.921Z,73.34
2023-05-03T09:56:14.875Z,73.15
2023-05-03T09:59:17.020Z,71.88
2023-05-03T10:02:18.905Z,69.37
2023-05-03T10:05:22.409Z,73.05
2023-05-03T10:08:27.458Z,71.09
2023-05-03T10:11:29.271Z,69.27
2023-05-03T10:14:31.581Z,69.96
2023-05-03T10:17:47.945Z,71.42
2023-05-03T10:20:55.291Z,68.97
2023-05-03T10:24:09.540Z,68.97
2023-05-03T10:27:12.045Z,67.55
2023-05-03T10:30:28.616Z,65.88
2023-05-03T10:33:31.538Z,67.50
2023-05-03T10:36:48.485Z,69.52
2023-05-03T10:39:52.872Z,66.75
2023-05-03T10:42:55.183Z,65.80
2023-05-03T10:45:57.183Z,66.50
2023-05-03T10:49:17.734Z,66.53
2023-05-03T10:52:43.064Z,67.17
2023-05-03T10:56:01.499Z,64.85
2023-05-03T10:59:04.884Z,64.46
2023-05-03T11:02:14.710Z,65.55
2023-05-03T11:05:27.156Z,64.63
2023-05-03T11:08:37.527Z,65.66
2023-05-03T11:11:39.912Z,67.18
2023-05-03T11:14:43.520Z,65.56
2023-05-03T11:17:45.262Z,61.57
2023-05-03T11:20:47.106Z,62.68
2023-05-03T11:23:48.956Z,61.72
2023-05-03T11:26:50.694Z,61.95
2023-05-03T11:29:58.311Z,62.84
2023-05-03T11:33:00.364Z,63.10
2023-05-03T11:36:03.579Z,63.30
2023-05-03T11:39:06.059Z,62.64
2023-05-03T11:42:07.780Z,62.33
2023-05-03T11:45:11.577Z,62.77
2023-05-03T11:48:16.253Z,63.21
2023-05-03T11:51:21.936Z,63.88
2023-05-03T11:54:26.723Z,61.08
2023-05-03T11:57:29.696Z,61.09
2023-05-03T12:00:32.761Z,63.60
2023-05-03T12:03:36.498Z,61.68
2023-05-03T12:06:39.852Z,61.98
2023-05-03T12:09:44.812Z,60.98
2023-05-03T12:12:57.432Z,61.01
2023-05-03T12:16:11.729Z,59.02
2023-05-03T12:19:23.731Z,58.16
2023-05-03T12:22:30.464Z,59.06
2023-05-03T12:25:33.802Z,58.79
2023-05-03T12:28:37.252Z,58.41
2023-05-03T12:31:43.707Z,59.56
2023-05-03T12:34:47.258Z,59.54
2023-05-03T12:37:50.469Z,58.19
2023-05-03T12:40:53.677Z,56.75
2023-05-03T12:43:58.699Z,57.96
2023-05-03T12:47:04.286Z,60.36
2023-05-03T12:50:11.838Z,58.76
2023-05-03T12:53:16.904Z,56.94
2023-05-03T12:56:22.267Z,56.92
2023-05-03T12:59:40.183Z,57.28
2023-05-03T13:05:49.863Z,56.71
2023-05-03T13:08:52.573Z,56.65
2023-05-03T13:11:55.019Z,54.09
2023-05-03T13:14:56.949Z,56.37
2023-05-03T13:18:02.380Z,52.51
2023-05-03T13:21:04.582Z,55.51
2023-05-03T13:24:08.511Z,53.88
2023-05-03T13:27:13.620Z,55.38
2023-05-03T13:30:15.431Z,54.93
2023-05-03T13:33:22.360Z,55.04
2023-05-03T13:36:24.363Z,54.85
2023-05-03T13:39:26.130Z,55.65
2023-05-03T13:42:28.553Z,53.33
2023-05-03T13:45:30.181Z,56.14
2023-05-03T13:48:35.316Z,54.21
2023-05-03T13:51:39.208Z,54.58
2023-05-03T13:54:42.869Z,53.96
2023-05-03T13:57:44.822Z,55.85
2023-05-03T14:00:46.932Z,55.89
2023-05-03T14:03:50.348Z,55.30
2023-05-03T14:06:52.682Z,54.29
2023-05-03T14:09:54.385Z,52.99
2023-05-03T14:12:58.040Z,53.51
2023-05-03T14:16:00.080Z,55.21
2023-05-03T14:19:03.821Z,51.99
2023-05-03T14:22:05.717Z,53.77
2023-05-03T14:25:08.415Z,55.25
2023-05-03T14:28:10.149Z,55.24
2023-05-03T14:31:12.163Z,55.50
2023-05-03T14:34:15.255Z,53.96
2023-05-03T14:37:17.326Z,54.53
2023-05-03T14:40:20.691Z,53.84
2023-05-03T14:43:22.425Z,52.44
2023-05-03T14:46:24.557Z,52.66
2023-05-03T14:49:27.698Z,52.01
2023-05-03T14:52:29.967Z,52.53
2023-05-03T14:55:31.809Z,53.42
2023-05-03T14:58:33.796Z,52.14
2023-05-03T15:01:38.311Z,52.56
2023-05-03T15:04:41.431Z,51.64
2023-05-03T15:07:43.058Z,53.31
2023-05-03T15:10:45.157Z,52.16
2023-05-03T15:13:47.168Z,53.31
2023-05-03T15:16:48.863Z,52.08
2023-05-03T15:19:52.841Z,52.54
2023-05-03T15:22:54.527Z,53.38
2023-05-03T15:25:56.254Z,52.56
2023-05-03T15:28:57.867Z,51.57
2023-05-03T15:31:59.531Z,51.86
2023-05-03T15:35:02.586Z,50.90
2023-05-03T15:38:04.405Z,52.21
2023-05-03T15:41:06.709Z,52.61
2023-05-03T15:44:09.840Z,51.39
2023-05-03T15:47:12.352Z,51.85
2023-05-03T15:50:16.015Z,53.23
2023-05-03T15:53:17.755Z,52.98
2023-05-03T15:56:20.571Z,52.88
2023-05-03T15:59:22.235Z,53.63
2023-05-03T16:02:24.035Z,53.35
2023-05-03T16:05:27.459Z,54.28
2023-05-03T16:08:29.258Z,52.54
2023-05-03T16:11:31.294Z,53.81
2023-05-03T16:14:32.970Z,53.24
2023-05-03T16:17:34.872Z,52.67
2023-05-03T16:20:37.863Z,51.90
2023-05-03T16:23:39.726Z,52.92
2023-05-03T16:26:41.914Z,54.23
2023-05-03T16:29:43.657Z,53.79
2023-05-03T16:32:45.304Z,54.17
2023-05-03T16:35:49.938Z,54.28
2023-05-03T16:38:51.534Z,53.79
2023-05-03T16:41:53.599Z,53.47
2023-05-03T16:44:55.829Z,53.07
2023-05-03T16:47:57.703Z,54.64
2023-05-03T16:51:00.892Z,54.18
2023-05-03T16:54:04.389Z,54.26
2023-05-03T16:57:06.362Z,53.32
2023-05-03T17:00:09.355Z,54.62
2023-05-03T17:03:11.740Z,53.13
2023-05-03T17:06:16.155Z,53.41
2023-05-03T17:09:17.918Z,52.84
2023-05-03T17:12:19.578Z,52.97
2023-05-03T17:15:21.382Z,53.32
2023-05-03T17:18:23.060Z,53.59
2023-05-03T17:21:31.471Z,52.95
2023-05-03T17:24:33.870Z,52.78
2023-05-03T17:27:36.501Z,52.82
2023-05-03T17:30:38.912Z,52.89
2023-05-03T17:33:40.525Z,53.10
2023-05-03T17:36:43.622Z,53.09
2023-05-03T17:39:45.465Z,53.79
2023-05-03T17:42:47.146Z,53.64
2023-05-03T17:45:48.905Z,54.54
2023-05-03T17:48:52.222Z,54.34
2023-05-03T17:51:55.309Z,54.21
2023-05-03T17:54:57.098Z,55.83
2023-05-03T17:57:59.740Z,55.94
2023-05-03T18:01:01.557Z,55.18
2023-05-03T18:04:03.384Z,54.77
2023-05-03T18:07:06.674Z,54.58
2023-05-03T18:10:09.771Z,55.12
2023-05-03T18:13:12.685Z,54.76
2023-05-03T18:16:14.628Z,55.52
2023-05-03T18:19:16.285Z,55.95
2023-05-03T18:22:19.226Z,56.54
2023-05-03T18:25:20.900Z,56.82
2023-05-03T18:28:23.984Z,57.12
2023-05-03T18:31:25.876Z,57.53
2023-05-03T18:34:27.552Z,57.58
2023-05-03T18:37:30.772Z,58.22
2023-05-03T18:40:32.522Z,58.26
2023-05-03T18:43:36.665Z,58.66
2023-05-03T18:46:40.110Z,58.71
2023-05-03T18:49:41.948Z,59.15
2023-05-03T18:52:45.421Z,59.12
2023-05-03T18:55:46.978Z,59.60
2023-05-03T18:58:48.492Z,60.13
2023-05-03T19:01:51.010Z,59.97
2023-05-03T19:04:52.921Z,59.82
2023-05-03T19:07:55.987Z,60.26
2023-05-03T19:10:57.621Z,60.27
2023-05-03T19:14:00.512Z,60.60
2023-05-03T19:17:02.379Z,60.49
2023-05-03T19:20:05.504Z,60.67
2023-05-03T19:23:08.624Z,61.00
2023-05-03T19:26:10.406Z,60.92
2023-05-03T19:29:12.041Z,61.11
2023-05-03T19:32:13.751Z,61.26
2023-05-03T19:35:15.665Z,61.52
2023-05-03T19:38:18.862Z,61.68
2023-05-03T19:41:20.422Z,61.69
2023-05-03T19:44:21.928Z,61.89
2023-05-03T19:47:24.165Z,62.24
2023-05-03T19:50:25.872Z,62.06
2023-05-03T19:53:28.997Z,62.26
2023-05-03T19:56:30.566Z,62.44
2023-05-03T19:59:32.097Z,62.73
2023-05-03T20:02:34.199Z,62.76
2023-05-03T20:05:35.924Z,62.80
2023-05-03T20:08:39.178Z,63.33
2023-05-03T20:11:40.906Z,63.35
2023-05-03T20:14:42.970Z,63.36
2023-05-03T20:17:45.588Z,63.27
2023-05-03T20:20:47.854Z,63.53
2023-05-03T20:23:54.809Z,64.15
2023-05-03T20:26:56.918Z,64.04
2023-05-03T20:29:58.579Z,64.29
2023-05-03T20:33:00.328Z,65.16
2023-05-03T20:36:02.079Z,64.66
2023-05-03T20:39:05.388Z,64.86
2023-05-03T20:42:07.083Z,64.84
2023-05-03T20:45:09.304Z,65.03
2023-05-03T20:48:11.164Z,65.97
2023-05-03T20:51:13.094Z,65.51
2023-05-03T20:54:16.983Z,65.56
2023-05-03T20:57:18.713Z,65.92
2023-05-03T21:00:22.187Z,66.39
2023-05-03T21:03:24.503Z,67.02
2023-05-03T21:06:27.284Z,67.12
2023-05-03T21:09:30.293Z,66.82
2023-05-03T21:12:31.977Z,67.59
2023-05-03T21:15:33.716Z,67.13
2023-05-03T21:18:35.910Z,67.15
2023-05-03T21:21:37.564Z,66.99
2023-05-03T21:24:40.604Z,67.15
2023-05-03T21:27:42.325Z,67.18
2023-05-03T21:30:43.972Z,67.28
2023-05-03T21:33:45.801Z,68.11
2023-05-03T21:36:47.344Z,68.32
2023-05-03T21:40:00.423Z,68.42
2023-05-03T21:43:04.334Z,68.67
2023-05-03T21:46:06.898Z,68.90
2023-05-03T21:49:08.702Z,68.72
2023-05-03T21:52:10.514Z,69.03
2023-05-03T21:55:13.920Z,69.02
2023-05-03T21:58:15.718Z,69.24
2023-05-03T22:01:20.612Z,69.35
2023-05-03T22:04:22.525Z,69.61
2023-05-03T22:07:24.105Z,69.91
2023-05-03T22:10:27.464Z,70.54
2023-05-03T22:13:29.203Z,70.34
2023-05-03T22:16:31.119Z,70.13
2023-05-03T22:19:35.904Z,71.04
2023-05-03T22:22:37.606Z,70.85
2023-05-03T22:25:40.662Z,71.22
2023-05-03T22:28:42.378Z,71.08
2023-05-03T22:31:44.407Z,71.27
2023-05-03T22:34:46.256Z,71.43
2023-05-03T22:37:48.274Z,71.71
2023-05-03T22:40:51.458Z,71.67
2023-05-03T22:43:53.627Z,72.08
2023-05-03T22:46:55.507Z,71.89
2023-05-03T22:49:57.497Z,72.06
2023-05-03T22:52:59.032Z,72.02
2023-05-03T22:56:04.470Z,72.31
2023-05-03T22:59:06.102Z,72.52
2023-05-03T23:02:07.871Z,73.31
2023-05-03T23:05:09.577Z,73.65
2023-05-03T23:08:11.486Z,74.45
2023-05-03T23:11:14.776Z,74.41
2023-05-03T23:14:16.506Z,75.01
2023-05-03T23:17:18.063Z,75.77
2023-05-03T23:20:20.156Z,76.13
2023-05-03T23:23:21.849Z,76.88
2023-05-03T23:26:25.185Z,76.34
2023-05-03T23:29:27.541Z,76.63
2023-05-03T23:32:31.861Z,76.48
2023-05-03T23:35:34.265Z,76.41
2023-05-03T23:38:36.001Z,76.93
2023-05-03T23:41:39.485Z,77.19
2023-05-03T23:44:53.878Z,77.69
2023-05-03T23:47:57.118Z,77.91
2023-05-03T23:50:58.797Z,78.50
2023-05-03T23:54:00.449Z,78.80
2023-05-03T23:57:03.679Z,78.40
